Main page


Airports :

Laupheim, Germany

Laupheim Air Base

latitude: 48-13N, longitude: 009-55E, elevation: 538 m

Current weather observation

The report was made 20 minutes ago, at 11:20 UTC
Wind 5 kt from the East/Northeast
Temperature -2°C
Humidity 80%
Pressure 1000 hPa
Visibility: 7000 m
Broken clouds at a height of 1300 ft

METAR: ETHL 181120Z 06005KT 7000 BKN013 M02/M05 Q1000 GRN

Time: 12:40 (11:40 UTC)

TAF: missing

Weather observations and forecasts of more than 4000 airports (METAR and TAF reports).

The available stations are represented by yellow and red dots on the map.

Hover mouse over dot to see the name of the station.

Then click to see weather observations and forecasts.

To change the map : click on the green buttons with a black cross to zoom in, on the green button with a dash to zoom out, or on the green arrows for adjacent maps.